createdAt,value
2023-01-17T06:41:12.304Z,98821.28
2023-01-17T06:43:41.302Z,98815.02
2023-01-17T06:46:12.474Z,98815.81
2023-01-17T06:48:48.348Z,98820.91
2023-01-17T06:51:43.812Z,98822.48
2023-01-17T06:54:16.444Z,98816.30
2023-01-17T06:56:50.768Z,98818.83
2023-01-17T06:59:23.854Z,98814.15
2023-01-17T07:01:54.832Z,98814.70
2023-01-17T07:04:23.918Z,98816.33
2023-01-17T07:06:54.736Z,98815.51
2023-01-17T07:09:29.669Z,98819.01
2023-01-17T07:12:26.937Z,98824.36
2023-01-17T07:15:10.974Z,98823.18
2023-01-17T07:18:36.710Z,98815.77
2023-01-17T07:25:12.289Z,98816.92
2023-01-17T07:27:39.707Z,98814.48
2023-01-17T07:30:09.263Z,98806.02
2023-01-17T07:32:39.097Z,98807.61
2023-01-17T07:35:10.631Z,98811.28
2023-01-17T07:37:48.608Z,98808.08
2023-01-17T07:40:50.126Z,98799.17
2023-01-17T07:43:29.931Z,98804.14
2023-01-17T07:46:02.085Z,98800.54
2023-01-17T07:48:39.114Z,98799.91
2023-01-17T07:51:46.406Z,98791.75
2023-01-17T07:54:21.068Z,98796.23
2023-01-17T07:56:58.928Z,98800.77
2023-01-17T07:59:31.424Z,98800.63
2023-01-17T08:02:06.124Z,98801.30
2023-01-17T08:04:34.763Z,98798.78
2023-01-17T08:10:06.836Z,98792.13
2023-01-17T08:12:37.481Z,98801.08
2023-01-17T08:15:16.740Z,98796.15
2023-01-17T08:17:51.884Z,98796.73
2023-01-17T08:21:34.870Z,98795.97
2023-01-17T08:24:04.948Z,98797.55
2023-01-17T08:26:58.110Z,98800.63
2023-01-17T08:29:47.878Z,98793.25
2023-01-17T08:33:08.749Z,98790.91
2023-01-17T08:35:38.373Z,98782.97
2023-01-17T08:38:11.087Z,98777.36
2023-01-17T08:41:08.998Z,98780.75
2023-01-17T08:43:39.636Z,98780.56
2023-01-17T08:49:23.498Z,98770.17
2023-01-17T08:58:55.693Z,98748.41
2023-01-17T09:01:42.192Z,98750.33
2023-01-17T09:05:03.204Z,98743.92
2023-01-17T09:08:52.703Z,98740.13
2023-01-17T09:11:31.339Z,98742.15
2023-01-17T09:13:59.144Z,98730.05
2023-01-17T09:16:32.320Z,98730.85
2023-01-17T09:19:09.591Z,98733.52
2023-01-17T09:21:42.221Z,98728.27
2023-01-17T09:24:14.080Z,98721.46
2023-01-17T09:33:02.051Z,98708.96
2023-01-17T09:35:36.564Z,98706.67
2023-01-17T09:38:24.481Z,98701.05
2023-01-17T09:41:10.750Z,98701.06
2023-01-17T09:43:46.945Z,98688.40
2023-01-17T09:46:38.094Z,98686.45
2023-01-17T09:49:16.492Z,98682.78
2023-01-17T09:52:01.656Z,98682.04
2023-01-17T09:54:44.982Z,98683.80
2023-01-17T09:57:43.147Z,98674.70
2023-01-17T10:00:46.370Z,98679.23
2023-01-17T10:03:36.335Z,98676.96
2023-01-17T10:07:01.778Z,98674.81
2023-01-17T10:10:00.434Z,98670.58
2023-01-17T10:13:14.410Z,98662.59
2023-01-17T10:16:30.353Z,98666.02
2023-01-17T10:19:34.908Z,98665.13
2023-01-17T10:22:12.913Z,98660.58
2023-01-17T10:25:22.650Z,98670.73
2023-01-17T10:27:58.731Z,98657.77
2023-01-17T10:30:34.127Z,98658.44
2023-01-17T10:33:24.420Z,98659.50
2023-01-17T10:36:12.388Z,98657.59
2023-01-17T10:38:41.722Z,98659.44
2023-01-17T10:41:38.106Z,98656.64
2023-01-17T10:44:21.059Z,98652.52
2023-01-17T10:47:31.581Z,98648.73
2023-01-17T10:50:02.538Z,98648.79
2023-01-17T10:52:38.832Z,98640.02
2023-01-17T10:55:40.007Z,98641.06
2023-01-17T10:58:12.256Z,98629.66
2023-01-17T11:00:47.457Z,98627.82
2023-01-17T11:03:17.359Z,98625.21
2023-01-17T11:05:45.225Z,98620.89
2023-01-17T11:08:13.715Z,98616.81
2023-01-17T11:10:49.291Z,98612.29
2023-01-17T11:13:34.317Z,98606.46
2023-01-17T11:16:09.015Z,98600.94
2023-01-17T11:18:39.377Z,98602.05
2023-01-17T11:21:13.124Z,98604.80
2023-01-17T16:00:38.416Z,98535.42
2023-01-17T16:03:24.259Z,98536.34
2023-01-17T16:05:52.615Z,98536.59
2023-01-17T16:08:25.046Z,98527.94
2023-01-17T16:10:59.252Z,98534.58
2023-01-17T16:13:26.246Z,98540.98
2023-01-17T16:15:53.195Z,98543.39
2023-01-17T16:18:24.272Z,98549.25
2023-01-17T16:20:59.775Z,98549.59
2023-01-17T16:23:27.256Z,98548.73
2023-01-17T16:25:54.097Z,98555.02
2023-01-17T16:28:21.241Z,98559.46
2023-01-17T16:30:49.148Z,98564.70
2023-01-17T16:33:16.153Z,98566.29
2023-01-17T16:35:44.286Z,98569.56
2023-01-17T16:38:12.823Z,98561.92
2023-01-17T16:40:47.553Z,98563.23
2023-01-17T16:43:16.029Z,98558.16
2023-01-17T16:45:45.744Z,98561.95
2023-01-17T16:48:12.707Z,98564.61
2023-01-17T16:50:48.285Z,98562.45
2023-01-17T16:53:15.571Z,98568.01
2023-01-17T16:55:42.611Z,98576.49
2023-01-17T16:58:09.492Z,98587.29
2023-01-17T17:06:45.923Z,98586.08
2023-01-17T17:09:13.973Z,98600.42
2023-01-17T17:11:41.399Z,98599.64
2023-01-17T17:14:08.872Z,98591.55
2023-01-17T17:16:36.445Z,98587.21
2023-01-17T17:19:05.051Z,98600.16
2023-01-17T17:21:35.120Z,98612.18
2023-01-17T17:24:02.788Z,98615.86
2023-01-17T17:26:31.461Z,98618.83
2023-01-17T17:28:58.042Z,98615.76
2023-01-17T17:31:24.785Z,98620.17
2023-01-17T17:33:51.766Z,98619.11
2023-01-17T17:36:18.590Z,98621.52
2023-01-17T17:38:51.246Z,98618.90
2023-01-17T17:41:19.865Z,98619.51
2023-01-17T17:43:46.799Z,98618.29
